Time;durP1;ratioP1;P1;durP2;ratioP2;P2;SDS_P1;SDS_P2;PMS_P1;PMS_P2;Temp;Humidity;BMP_temperature;BMP_pressure;BME280_temperature;BME280_humidity;BME280_pressure;Samples;Min_cycle;Max_cycle;Signal;HPM_P1;HPM_P2
2023/01/25 00:00:41;;;;;;;;;;;11.70;91.70;;;;;;5054883;28;19945;-67
2023/01/25 00:03:06;;;;;;;;;;;11.60;91.70;;;;;;5052795;28;19927;-68
2023/01/25 00:05:32;;;;;;;;;;;11.50;91.60;;;;;;5034937;28;19928;-69
2023/01/25 00:07:57;;;;;;;;;;;11.60;91.60;;;;;;5071721;28;19925;-68
2023/01/25 00:10:23;;;;;;;;;;;11.30;91.60;;;;;;5074925;28;19927;-68
2023/01/25 00:12:49;;;;;;;;;;;11.60;91.70;;;;;;5072555;28;19967;-67
2023/01/25 00:15:14;;;;;;;;;;;11.30;91.60;;;;;;5054103;28;20370;-67
2023/01/25 00:17:40;;;;;;;;;;;11.60;91.70;;;;;;5036715;28;19921;-68
2023/01/25 00:20:06;;;;;;;;;;;11.50;91.60;;;;;;5052300;28;19977;-67
2023/01/25 00:22:32;;;;;;;;;;;11.40;91.50;;;;;;5017239;28;19921;-66
2023/01/25 00:24:58;;;;;;;;;;;;;;;;;;5034746;28;19925;-66
2023/01/25 00:27:24;;;;;;;;;;;11.70;91.50;;;;;;5034723;28;19927;-66
2023/01/25 00:29:49;;;;;;;;;;;11.50;91.40;;;;;;5021866;28;19920;-68
2023/01/25 00:32:15;;;;;;;;;;;11.40;91.40;;;;;;5053635;28;19921;-68
2023/01/25 00:34:47;;;;;;;;;;;11.80;91.60;;;;;;5054264;28;19921;-67
2023/01/25 00:37:13;;;;;;;;;;;11.60;91.50;;;;;;5051729;28;19943;-67
2023/01/25 00:39:41;;;;;;;;;;;11.60;91.50;;;;;;5069792;28;19920;-67
2023/01/25 00:42:10;;;;;;;;;;;11.60;91.50;;;;;;5074036;28;19924;-67
2023/01/25 00:44:36;;;;;;;;;;;;;;;;;;5070770;28;19920;-67
2023/01/25 00:47:04;;;;;;;;;;;11.50;91.40;;;;;;5052918;28;19921;-66
2023/01/25 00:49:30;;;;;;;;;;;11.80;91.40;;;;;;5033392;28;19921;-69
2023/01/25 00:51:56;;;;;;;;;;;11.70;91.40;;;;;;5053874;28;20017;-68
2023/01/25 00:54:22;;;;;;;;;;;11.50;91.30;;;;;;5035852;28;19968;-69
2023/01/25 00:56:48;;;;;;;;;;;;;;;;;;5052162;28;19928;-69
2023/01/25 00:59:13;;;;;;;;;;;11.80;91.30;;;;;;5053025;28;20015;-67
2023/01/25 01:01:39;;;;;;;;;;;;;;;;;;5051936;28;19979;-70
2023/01/25 01:04:05;;;;;;;;;;;11.40;91.40;;;;;;5052870;28;19928;-68
2023/01/25 01:06:31;;;;;;;;;;;11.30;91.30;;;;;;5053386;28;20294;-67
2023/01/25 01:08:56;;;;;;;;;;;11.40;91.30;;;;;;5033834;28;20409;-68
2023/01/25 01:11:22;;;;;;;;;;;11.60;91.40;;;;;;5049888;28;19928;-68
2023/01/25 01:13:48;;;;;;;;;;;11.30;91.30;;;;;;5042832;28;19925;-67
2023/01/25 01:16:13;;;;;;;;;;;11.60;91.30;;;;;;5053235;28;20066;-67
2023/01/25 01:18:40;;;;;;;;;;;11.50;91.30;;;;;;5054686;28;20054;-67
2023/01/25 01:21:07;;;;;;;;;;;11.30;91.20;;;;;;5053785;28;19920;-68
2023/01/25 01:23:32;;;;;;;;;;;11.50;91.30;;;;;;5053888;28;19921;-68
2023/01/25 01:25:58;;;;;;;;;;;;;;;;;;5053714;28;20011;-67
2023/01/25 01:28:24;;;;;;;;;;;11.40;91.10;;;;;;5052745;28;19921;-67
2023/01/25 01:30:50;;;;;;;;;;;11.70;91.30;;;;;;5053425;28;19928;-66
2023/01/25 01:33:16;;;;;;;;;;;11.70;91.30;;;;;;5052685;28;19921;-68
2023/01/25 01:35:41;;;;;;;;;;;11.50;91.30;;;;;;5053022;28;19927;-67
2023/01/25 01:38:09;;;;;;;;;;;11.60;91.30;;;;;;5035473;28;19932;-67
2023/01/25 01:40:35;;;;;;;;;;;;;;;;;;5053360;28;20260;-61
2023/01/25 01:43:05;;;;;;;;;;;11.40;91.20;;;;;;5034563;28;20004;-66
2023/01/25 01:45:34;;;;;;;;;;;;;;;;;;5052129;28;19920;-65
2023/01/25 01:47:59;;;;;;;;;;;11.50;91.10;;;;;;5050596;28;19927;-68
2023/01/25 01:50:28;;;;;;;;;;;;;;;;;;5051348;28;19921;-66
2023/01/25 01:52:54;;;;;;;;;;;11.40;91.10;;;;;;5052514;28;20260;-67
2023/01/25 01:55:20;;;;;;;;;;;11.40;91.20;;;;;;5033948;28;19973;-67
2023/01/25 01:57:46;;;;;;;;;;;;;;;;;;5051894;28;19921;-67
2023/01/25 02:00:14;;;;;;;;;;;11.50;91.20;;;;;;5051557;28;19932;-68
2023/01/25 02:02:40;;;;;;;;;;;11.70;91.20;;;;;;5031088;28;19917;-66
2023/01/25 02:05:06;;;;;;;;;;;11.40;91.10;;;;;;5009504;28;19921;-68
2023/01/25 02:07:32;;;;;;;;;;;11.40;91.10;;;;;;5051755;28;19928;-68
2023/01/25 02:09:58;;;;;;;;;;;11.50;91.20;;;;;;5052463;28;20019;-69
2023/01/25 02:12:24;;;;;;;;;;;11.20;91.10;;;;;;5033626;28;20361;-67
2023/01/25 02:14:50;;;;;;;;;;;11.40;91.20;;;;;;5038266;28;19940;-66
2023/01/25 02:17:18;;;;;;;;;;;11.40;91.20;;;;;;5055200;28;19940;-68
2023/01/25 02:19:47;;;;;;;;;;;11.40;91.20;;;;;;5056328;28;19967;-67
2023/01/25 02:22:15;;;;;;;;;;;11.70;91.20;;;;;;5037257;28;19921;-67
2023/01/25 02:24:46;;;;;;;;;;;11.50;91.20;;;;;;5035343;28;20472;-67
2023/01/25 02:27:11;;;;;;;;;;;11.50;91.10;;;;;;5048939;28;20283;-65
2023/01/25 02:29:37;;;;;;;;;;;11.50;91.10;;;;;;5055077;28;19924;-67
2023/01/25 02:32:03;;;;;;;;;;;11.40;91.10;;;;;;5033753;28;19999;-67
2023/01/25 02:34:29;;;;;;;;;;;11.60;91.10;;;;;;5053972;28;19927;-66
2023/01/25 02:36:55;;;;;;;;;;;11.30;91.10;;;;;;5055136;28;19920;-68
2023/01/25 02:39:22;;;;;;;;;;;11.50;91.10;;;;;;5034643;28;20364;-68
2023/01/25 02:41:48;;;;;;;;;;;;;;;;;;5029086;28;19931;-68
2023/01/25 02:44:14;;;;;;;;;;;11.30;91.00;;;;;;5052563;28;20359;-67
2023/01/25 02:46:40;;;;;;;;;;;11.40;91.00;;;;;;5033995;28;19972;-69
2023/01/25 02:49:06;;;;;;;;;;;11.40;91.00;;;;;;5033797;28;19979;-68
2023/01/25 02:51:33;;;;;;;;;;;11.50;91.10;;;;;;5035473;28;19971;-68
2023/01/25 02:53:58;;;;;;;;;;;11.70;91.10;;;;;;5034180;28;19921;-68
2023/01/25 02:56:24;;;;;;;;;;;11.50;91.10;;;;;;5034700;28;20409;-68
2023/01/25 02:58:50;;;;;;;;;;;11.40;91.10;;;;;;5034022;28;19956;-69
2023/01/25 03:01:16;;;;;;;;;;;11.40;91.00;;;;;;5035172;28;19975;-68
2023/01/25 03:03:42;;;;;;;;;;;;;;;;;;5014663;28;20302;-65
2023/01/25 03:06:07;;;;;;;;;;;11.60;91.00;;;;;;5033905;28;19925;-68
2023/01/25 03:08:33;;;;;;;;;;;11.60;91.00;;;;;;5034496;28;20554;-68
2023/01/25 03:10:59;;;;;;;;;;;;;;;;;;5030051;28;19920;-62
2023/01/25 03:13:25;;;;;;;;;;;11.60;90.80;;;;;;5034831;28;20286;-69
2023/01/25 03:15:51;;;;;;;;;;;11.40;90.90;;;;;;5034642;28;19921;-69
2023/01/25 03:18:16;;;;;;;;;;;11.50;90.90;;;;;;5034896;28;19967;-68
2023/01/25 03:20:42;;;;;;;;;;;11.10;90.80;;;;;;5033142;28;20014;-68
2023/01/25 03:23:08;;;;;;;;;;;11.30;90.90;;;;;;5034487;28;20279;-68
2023/01/25 03:25:33;;;;;;;;;;;11.30;90.90;;;;;;5030251;28;19922;-67
2023/01/25 03:27:59;;;;;;;;;;;11.40;90.90;;;;;;5014021;28;19928;-66
2023/01/25 03:30:25;;;;;;;;;;;11.30;90.90;;;;;;5033616;28;19943;-66
2023/01/25 03:32:51;;;;;;;;;;;11.20;90.80;;;;;;5034038;28;20393;-67
2023/01/25 03:35:17;;;;;;;;;;;11.30;90.90;;;;;;5016547;28;20004;-68
2023/01/25 03:37:43;;;;;;;;;;;11.40;90.90;;;;;;5035019;28;20021;-68
2023/01/25 03:40:09;;;;;;;;;;;;;;;;;;5031184;28;19921;-69
2023/01/25 03:42:34;;;;;;;;;;;11.40;90.90;;;;;;5034626;28;19921;-67
2023/01/25 03:45:00;;;;;;;;;;;11.30;90.90;;;;;;5033597;28;19921;-69
2023/01/25 03:47:26;;;;;;;;;;;11.10;90.90;;;;;;5050852;28;19975;-68
2023/01/25 03:49:51;;;;;;;;;;;11.30;90.90;;;;;;5036409;28;20457;-67
2023/01/25 03:52:17;;;;;;;;;;;11.40;90.90;;;;;;5032976;28;19948;-66
2023/01/25 03:54:43;;;;;;;;;;;11.60;91.00;;;;;;5055088;28;19928;-68
2023/01/25 03:57:09;;;;;;;;;;;11.40;90.90;;;;;;5033900;28;20008;-68
2023/01/25 03:59:34;;;;;;;;;;;11.30;90.90;;;;;;5053628;28;19920;-68
2023/01/25 04:02:01;;;;;;;;;;;11.00;90.80;;;;;;5052996;28;19925;-69
2023/01/25 04:04:27;;;;;;;;;;;11.40;90.90;;;;;;5037770;28;20370;-68
2023/01/25 04:06:53;;;;;;;;;;;11.40;90.90;;;;;;5054037;28;19966;-69
2023/01/25 04:09:18;;;;;;;;;;;11.40;91.00;;;;;;5054472;28;20370;-69
2023/01/25 04:11:44;;;;;;;;;;;11.30;90.90;;;;;;5053734;28;19927;-69
2023/01/25 04:14:10;;;;;;;;;;;11.40;90.90;;;;;;5053594;28;19927;-69
2023/01/25 04:16:35;;;;;;;;;;;11.20;90.90;;;;;;5036206;28;19927;-69
2023/01/25 04:19:01;;;;;;;;;;;11.30;90.90;;;;;;5053787;28;19920;-68
2023/01/25 04:21:26;;;;;;;;;;;11.30;90.90;;;;;;5053823;28;19927;-68
2023/01/25 04:23:52;;;;;;;;;;;11.60;91.00;;;;;;5036090;28;19921;-69
2023/01/25 04:26:18;;;;;;;;;;;11.50;90.90;;;;;;5053234;28;20015;-69
2023/01/25 04:28:43;;;;;;;;;;;11.20;90.80;;;;;;5053895;28;19921;-69
2023/01/25 04:31:10;;;;;;;;;;;;;;;;;;5053394;28;20398;-69
2023/01/25 04:33:35;;;;;;;;;;;11.40;90.90;;;;;;5054653;28;20294;-69
2023/01/25 04:36:01;;;;;;;;;;;;;;;;;;5034260;28;19917;-67
2023/01/25 04:38:27;;;;;;;;;;;11.50;90.90;;;;;;5054512;28;19931;-68
2023/01/25 04:40:53;;;;;;;;;;;11.30;90.80;;;;;;5053757;28;19920;-69
2023/01/25 04:43:19;;;;;;;;;;;11.40;90.80;;;;;;5036301;28;20029;-69
2023/01/25 04:45:44;;;;;;;;;;;11.40;90.80;;;;;;5052154;28;19928;-68
2023/01/25 04:48:10;;;;;;;;;;;11.20;90.80;;;;;;5035987;28;19927;-68
2023/01/25 04:50:37;;;;;;;;;;;11.40;90.90;;;;;;5052415;28;19963;-68
2023/01/25 04:53:02;;;;;;;;;;;11.30;90.90;;;;;;5054249;28;19928;-68
2023/01/25 04:55:28;;;;;;;;;;;11.30;90.90;;;;;;5035520;28;19921;-69
2023/01/25 04:57:53;;;;;;;;;;;11.50;90.90;;;;;;5052781;28;20007;-69
2023/01/25 05:00:19;;;;;;;;;;;11.30;90.80;;;;;;5052826;28;20315;-68
2023/01/25 05:02:45;;;;;;;;;;;11.20;90.80;;;;;;5052483;28;20000;-69
2023/01/25 05:05:11;;;;;;;;;;;11.10;90.80;;;;;;5035662;28;19920;-69
2023/01/25 05:07:36;;;;;;;;;;;11.50;90.90;;;;;;5052511;28;20011;-69
2023/01/25 05:10:02;;;;;;;;;;;11.30;90.90;;;;;;5052088;28;19920;-69
2023/01/25 05:12:28;;;;;;;;;;;11.40;90.90;;;;;;5052808;28;19924;-69
2023/01/25 05:14:53;;;;;;;;;;;11.50;90.90;;;;;;5052490;28;20015;-69
2023/01/25 05:17:19;;;;;;;;;;;11.20;90.70;;;;;;5051761;28;19964;-68
2023/01/25 05:19:44;;;;;;;;;;;11.30;90.80;;;;;;5035410;28;19916;-69
2023/01/25 05:22:14;;;;;;;;;;;11.30;90.80;;;;;;5053860;28;20355;-67
2023/01/25 05:24:40;;;;;;;;;;;11.40;90.80;;;;;;5073046;28;20385;-69
2023/01/25 05:27:06;;;;;;;;;;;11.40;90.80;;;;;;5061917;28;20381;-69
2023/01/25 05:29:35;;;;;;;;;;;;;;;;;;5053481;28;19928;-68
2023/01/25 05:32:02;;;;;;;;;;;11.20;90.80;;;;;;5054525;28;19920;-68
2023/01/25 05:34:27;;;;;;;;;;;11.30;90.90;;;;;;5053362;28;19970;-69
2023/01/25 05:36:53;;;;;;;;;;;11.10;90.80;;;;;;5041795;28;19980;-69
2023/01/25 05:39:19;;;;;;;;;;;11.40;90.90;;;;;;5033811;28;19928;-69
2023/01/25 05:41:44;;;;;;;;;;;11.50;90.80;;;;;;5050850;28;20366;-69
2023/01/25 05:44:10;;;;;;;;;;;11.40;90.90;;;;;;5034379;28;19921;-69
2023/01/25 05:46:36;;;;;;;;;;;11.40;90.90;;;;;;5053344;28;20010;-69
2023/01/25 05:49:02;;;;;;;;;;;11.50;90.90;;;;;;5053406;28;19991;-69
2023/01/25 05:51:27;;;;;;;;;;;11.30;90.80;;;;;;5055496;28;19924;-69
2023/01/25 05:53:54;;;;;;;;;;;11.40;90.80;;;;;;5056140;28;19924;-69
2023/01/25 05:56:20;;;;;;;;;;;11.50;90.80;;;;;;5056776;28;19921;-69
2023/01/25 05:58:45;;;;;;;;;;;11.30;90.80;;;;;;5057489;28;19943;-66
2023/01/25 06:01:11;;;;;;;;;;;11.30;90.80;;;;;;5020842;28;19928;-69
2023/01/25 06:03:37;;;;;;;;;;;;;;;;;;5056552;28;19925;-70
2023/01/25 06:06:03;;;;;;;;;;;11.40;90.80;;;;;;5037732;28;19924;-69
2023/01/25 06:08:29;;;;;;;;;;;11.50;90.80;;;;;;5055817;28;20464;-66
2023/01/25 06:10:55;;;;;;;;;;;11.10;90.70;;;;;;5038582;28;19967;-67
2023/01/25 06:13:21;;;;;;;;;;;11.40;90.80;;;;;;5038733;28;19920;-68
2023/01/25 06:15:47;;;;;;;;;;;;;;;;;;5053494;28;19921;-66
2023/01/25 06:18:13;;;;;;;;;;;11.30;90.70;;;;;;5046225;28;19966;-68
2023/01/25 06:20:38;;;;;;;;;;;11.30;90.70;;;;;;5038342;28;19917;-68
2023/01/25 06:23:04;;;;;;;;;;;10.90;90.60;;;;;;5056244;28;19928;-67
2023/01/25 06:25:33;;;;;;;;;;;11.20;90.60;;;;;;5019204;28;19921;-67
2023/01/25 06:27:58;;;;;;;;;;;11.30;90.70;;;;;;5056493;28;19920;-67
2023/01/25 06:30:24;;;;;;;;;;;11.20;90.70;;;;;;5055845;28;19921;-68
2023/01/25 06:32:50;;;;;;;;;;;11.30;90.70;;;;;;5034848;28;19921;-69
2023/01/25 06:35:16;;;;;;;;;;;11.30;90.80;;;;;;5032804;28;19928;-69
2023/01/25 06:37:41;;;;;;;;;;;11.20;90.70;;;;;;5053069;28;19925;-69
2023/01/25 06:40:07;;;;;;;;;;;11.10;90.70;;;;;;5037996;28;19925;-69
2023/01/25 06:42:33;;;;;;;;;;;;;;;;;;5037839;28;20199;-69
2023/01/25 06:44:59;;;;;;;;;;;11.20;90.70;;;;;;5055015;28;19920;-67
2023/01/25 06:47:25;;;;;;;;;;;11.30;90.70;;;;;;5035889;28;19920;-69
2023/01/25 06:49:50;;;;;;;;;;;11.10;90.70;;;;;;5054610;28;20003;-69
2023/01/25 06:52:16;;;;;;;;;;;11.10;90.70;;;;;;5037351;28;19928;-68
2023/01/25 06:54:42;;;;;;;;;;;11.10;90.70;;;;;;5055820;28;19924;-67
2023/01/25 06:57:09;;;;;;;;;;;11.20;90.70;;;;;;5054831;28;19979;-67
2023/01/25 06:59:34;;;;;;;;;;;11.40;90.80;;;;;;5033578;28;19921;-68
2023/01/25 07:02:00;;;;;;;;;;;11.00;90.70;;;;;;5030594;28;19981;-69
2023/01/25 07:04:26;;;;;;;;;;;11.20;90.80;;;;;;5037614;28;20298;-68
2023/01/25 07:06:51;;;;;;;;;;;11.20;90.70;;;;;;5054430;28;19927;-68
2023/01/25 07:09:22;;;;;;;;;;;11.40;90.70;;;;;;5054782;28;19949;-69
2023/01/25 07:11:48;;;;;;;;;;;11.20;90.70;;;;;;5054115;28;20376;-69
2023/01/25 07:14:14;;;;;;;;;;;11.30;90.80;;;;;;5054783;28;19927;-69
2023/01/25 07:16:39;;;;;;;;;;;11.30;90.70;;;;;;5055099;28;19921;-68
2023/01/25 07:19:05;;;;;;;;;;;;;;;;;;5053541;28;20019;-67
2023/01/25 07:21:31;;;;;;;;;;;11.40;90.80;;;;;;5053705;28;19920;-68
2023/01/25 07:24:01;;;;;;;;;;;11.40;90.80;;;;;;5041857;28;20400;-67
2023/01/25 07:26:27;;;;;;;;;;;11.30;90.70;;;;;;5055021;28;19925;-67
2023/01/25 07:28:53;;;;;;;;;;;11.40;90.70;;;;;;5032514;28;19928;-67
2023/01/25 07:31:19;;;;;;;;;;;11.50;90.80;;;;;;5045500;28;19924;-67
2023/01/25 07:33:51;;;;;;;;;;;11.40;90.80;;;;;;5037600;28;20016;-67
2023/01/25 07:36:17;;;;;;;;;;;11.40;90.70;;;;;;5049489;28;20327;-68
2023/01/25 07:38:43;;;;;;;;;;;;;;;;;;5041034;28;20019;-69
2023/01/25 07:41:09;;;;;;;;;;;;;;;;;;5037025;28;19928;-68
2023/01/25 07:43:35;;;;;;;;;;;11.40;90.70;;;;;;5035420;28;19927;-67
2023/01/25 07:46:01;;;;;;;;;;;;;;;;;;5021462;28;19921;-69
2023/01/25 07:48:28;;;;;;;;;;;;;;;;;;5023024;28;20325;-68
2023/01/25 07:53:42;;;;;;;;;;;11.50;90.70;;;;;;5032178;28;19979;-67
2023/01/25 07:56:08;;;;;;;;;;;;;;;;;;5037765;28;19925;-69
2023/01/25 07:58:33;;;;;;;;;;;11.30;90.70;;;;;;5044681;28;19976;-68
2023/01/25 08:01:09;;;;;;;;;;;11.50;90.60;;;;;;5044101;28;19920;-68
2023/01/25 08:03:34;;;;;;;;;;;11.60;90.70;;;;;;5044638;28;19975;-68
2023/01/25 08:06:00;;;;;;;;;;;11.40;90.60;;;;;;5034889;28;19921;-68
2023/01/25 08:08:26;;;;;;;;;;;11.60;90.70;;;;;;5051618;28;20012;-66
2023/01/25 08:10:51;;;;;;;;;;;11.40;90.70;;;;;;5049216;28;20378;-68
2023/01/25 08:13:18;;;;;;;;;;;;;;;;;;5031040;28;19924;-65
2023/01/25 08:15:43;;;;;;;;;;;11.30;90.60;;;;;;5041087;28;19928;-67
2023/01/25 08:18:09;;;;;;;;;;;11.30;90.70;;;;;;5049249;28;19921;-67
2023/01/25 08:20:36;;;;;;;;;;;11.40;90.70;;;;;;5049267;28;20294;-68
2023/01/25 08:23:02;;;;;;;;;;;11.20;90.60;;;;;;5023538;28;19921;-68
2023/01/25 08:25:28;;;;;;;;;;;;;;;;;;5054326;28;19920;-68
2023/01/25 08:27:54;;;;;;;;;;;11.40;90.70;;;;;;5055019;28;19920;-68
2023/01/25 08:30:21;;;;;;;;;;;11.50;90.70;;;;;;5054333;28;19944;-68
2023/01/25 08:32:46;;;;;;;;;;;11.30;90.60;;;;;;5050219;28;19920;-69
2023/01/25 08:35:12;;;;;;;;;;;11.50;90.60;;;;;;5047749;28;19928;-67
2023/01/25 08:37:38;;;;;;;;;;;11.20;90.60;;;;;;5043135;28;19922;-68
2023/01/25 08:40:06;;;;;;;;;;;11.60;90.80;;;;;;5044796;28;20401;-66
2023/01/25 08:42:32;;;;;;;;;;;11.40;90.70;;;;;;5019051;28;19927;-69
2023/01/25 08:44:58;;;;;;;;;;;11.50;90.70;;;;;;5054026;28;20290;-67
2023/01/25 08:47:23;;;;;;;;;;;11.30;90.60;;;;;;5011528;28;20383;-69
2023/01/25 08:49:49;;;;;;;;;;;11.20;90.60;;;;;;5022663;28;19929;-70
2023/01/25 08:52:16;;;;;;;;;;;;;;;;;;5027044;28;19968;-69
2023/01/25 08:54:43;;;;;;;;;;;;;;;;;;5049047;28;19967;-69
2023/01/25 08:57:08;;;;;;;;;;;11.30;90.70;;;;;;5032152;28;20333;-70
2023/01/25 08:59:34;;;;;;;;;;;11.30;90.70;;;;;;5017782;28;19944;-68
2023/01/25 09:02:00;;;;;;;;;;;;;;;;;;5033703;28;19921;-71
2023/01/25 09:04:27;;;;;;;;;;;11.40;90.60;;;;;;5028957;28;19921;-70
2023/01/25 09:06:54;;;;;;;;;;;11.20;90.60;;;;;;5035843;28;19927;-74
2023/01/25 09:09:21;;;;;;;;;;;11.50;90.40;;;;;;5034137;28;19927;-76
2023/01/25 09:11:47;;;;;;;;;;;;;;;;;;5017358;28;19931;-74
2023/01/25 09:14:13;;;;;;;;;;;11.30;90.50;;;;;;5034638;28;19975;-72
2023/01/25 09:16:42;;;;;;;;;;;;;;;;;;5035640;28;20325;-71
2023/01/25 09:19:17;;;;;;;;;;;11.60;90.60;;;;;;5022214;28;19978;-79
2023/01/25 09:21:43;;;;;;;;;;;;;;;;;;5028783;28;19921;-74
2023/01/25 09:24:09;;;;;;;;;;;11.70;90.60;;;;;;5014853;28;20363;-75
2023/01/25 09:26:38;;;;;;;;;;;;;;;;;;5032704;28;19924;-68
2023/01/25 09:29:06;;;;;;;;;;;11.70;90.50;;;;;;5033224;28;19921;-71
2023/01/25 09:31:32;;;;;;;;;;;11.80;90.50;;;;;;5013446;28;19921;-71
2023/01/25 09:33:58;;;;;;;;;;;11.80;90.40;;;;;;5028218;28;19928;-70
2023/01/25 09:36:24;;;;;;;;;;;11.80;90.40;;;;;;5032844;28;19921;-70
2023/01/25 09:38:49;;;;;;;;;;;11.70;90.00;;;;;;5048307;28;19921;-70
2023/01/25 09:41:20;;;;;;;;;;;11.90;90.40;;;;;;5034335;28;19921;-76
2023/01/25 09:43:49;;;;;;;;;;;11.70;90.40;;;;;;5024795;28;19964;-70
2023/01/25 09:46:25;;;;;;;;;;;11.60;90.40;;;;;;5015570;28;20059;-70
2023/01/25 09:48:57;;;;;;;;;;;11.50;90.40;;;;;;5016418;28;20294;-70
2023/01/25 09:51:28;;;;;;;;;;;11.90;90.50;;;;;;5034865;28;20011;-70
2023/01/25 09:53:56;;;;;;;;;;;;;;;;;;5025617;28;19927;-72
2023/01/25 09:56:39;;;;;;;;;;;11.90;90.40;;;;;;5049660;28;19920;-67
2023/01/25 09:59:08;;;;;;;;;;;11.50;90.40;;;;;;5053514;28;19927;-69
2023/01/25 10:01:46;;;;;;;;;;;11.60;90.50;;;;;;5053494;28;19928;-69
2023/01/25 10:04:13;;;;;;;;;;;11.30;90.40;;;;;;5053501;28;20344;-69
2023/01/25 10:06:40;;;;;;;;;;;11.30;90.40;;;;;;5040996;28;19921;-68
2023/01/25 10:09:24;;;;;;;;;;;11.70;90.20;;;;;;5041687;28;19929;-67
2023/01/25 10:11:50;;;;;;;;;;;11.50;90.50;;;;;;5031687;28;19928;-67
2023/01/25 10:14:17;;;;;;;;;;;11.40;90.30;;;;;;5028938;28;19921;-69
2023/01/25 10:16:48;;;;;;;;;;;11.60;90.60;;;;;;5031905;28;20382;-67
2023/01/25 10:19:14;;;;;;;;;;;11.30;90.50;;;;;;5046462;28;19975;-66
2023/01/25 10:21:44;;;;;;;;;;;11.70;90.50;;;;;;5035273;28;19963;-68
2023/01/25 10:24:10;;;;;;;;;;;;;;;;;;5031020;28;19925;-67
2023/01/25 10:26:40;;;;;;;;;;;11.60;90.60;;;;;;5048029;28;19921;-68
2023/01/25 10:29:23;;;;;;;;;;;11.40;90.60;;;;;;5035330;28;19920;-70
2023/01/25 10:31:52;;;;;;;;;;;;;;;;;;5032753;28;19939;-64
2023/01/25 10:34:19;;;;;;;;;;;11.30;90.50;;;;;;5045265;28;19975;-66
2023/01/25 10:36:48;;;;;;;;;;;11.50;90.60;;;;;;5044703;28;19924;-69
2023/01/25 10:39:14;;;;;;;;;;;11.40;90.60;;;;;;5038734;28;20011;-68
2023/01/25 10:41:44;;;;;;;;;;;11.40;90.50;;;;;;5018925;28;20004;-71
2023/01/25 10:44:26;;;;;;;;;;;11.30;90.50;;;;;;5037921;28;19925;-66
2023/01/25 10:46:52;;;;;;;;;;;11.40;90.50;;;;;;5045208;28;19960;-72
2023/01/25 10:49:23;;;;;;;;;;;11.60;90.60;;;;;;5036396;28;19964;-73
2023/01/25 10:51:51;;;;;;;;;;;11.40;90.50;;;;;;5050641;28;19920;-68
2023/01/25 10:54:19;;;;;;;;;;;11.50;90.50;;;;;;5022237;28;19974;-70
2023/01/25 10:56:45;;;;;;;;;;;;;;;;;;5035090;28;19929;-61
2023/01/25 10:59:17;;;;;;;;;;;11.70;90.30;;;;;;5047896;28;19958;-68
2023/01/25 11:01:43;;;;;;;;;;;11.30;90.50;;;;;;5053477;28;20007;-67
2023/01/25 11:04:23;;;;;;;;;;;11.30;90.60;;;;;;5038224;28;19956;-67
2023/01/25 11:06:50;;;;;;;;;;;11.30;90.30;;;;;;5052544;28;20301;-68
2023/01/25 11:09:28;;;;;;;;;;;11.30;90.60;;;;;;5037502;28;20015;-68
2023/01/25 11:11:55;;;;;;;;;;;11.40;90.60;;;;;;5036650;28;19921;-70
2023/01/25 11:14:26;;;;;;;;;;;;;;;;;;5051248;28;19928;-70
2023/01/25 11:16:52;;;;;;;;;;;11.30;90.60;;;;;;5055468;28;19928;-70
2023/01/25 11:19:36;;;;;;;;;;;11.40;90.60;;;;;;5056068;28;19920;-68
2023/01/25 11:22:17;;;;;;;;;;;11.50;90.60;;;;;;5052961;28;19955;-70
2023/01/25 11:24:43;;;;;;;;;;;11.50;90.60;;;;;;5055985;28;20019;-67
2023/01/25 11:27:13;;;;;;;;;;;11.40;90.40;;;;;;5044652;28;20014;-71
2023/01/25 11:29:38;;;;;;;;;;;11.40;90.40;;;;;;5048154;28;19928;-67
2023/01/25 11:32:10;;;;;;;;;;;11.40;90.50;;;;;;5034756;28;19928;-68
2023/01/25 11:34:36;;;;;;;;;;;;;;;;;;5021086;28;20007;-67
2023/01/25 11:37:20;;;;;;;;;;;11.40;90.60;;;;;;5053087;28;19928;-69
2023/01/25 11:40:01;;;;;;;;;;;11.60;90.70;;;;;;5053451;28;19971;-68
2023/01/25 11:42:32;;;;;;;;;;;11.50;90.70;;;;;;5050809;28;19925;-69
2023/01/25 11:45:16;;;;;;;;;;;11.10;90.60;;;;;;5023936;28;20298;-68
2023/01/25 11:47:42;;;;;;;;;;;11.60;90.70;;;;;;5014607;28;19921;-68
2023/01/25 11:50:14;;;;;;;;;;;11.50;90.80;;;;;;5019338;28;19944;-68
2023/01/25 11:52:49;;;;;;;;;;;11.70;90.90;;;;;;5033363;28;19927;-68
2023/01/25 11:55:33;;;;;;;;;;;11.30;90.80;;;;;;5019688;28;19928;-68
2023/01/25 11:58:01;;;;;;;;;;;11.30;90.80;;;;;;5030677;28;20063;-69
2023/01/25 12:00:35;;;;;;;;;;;11.20;90.80;;;;;;5034528;28;19971;-69
2023/01/25 12:03:01;;;;;;;;;;;;;;;;;;5033507;28;19921;-69
2023/01/25 12:05:29;;;;;;;;;;;11.40;90.80;;;;;;5021416;28;19976;-70
2023/01/25 12:07:58;;;;;;;;;;;11.50;90.80;;;;;;5032783;28;19964;-70
2023/01/25 12:10:24;;;;;;;;;;;11.30;90.80;;;;;;5033863;28;19921;-69
2023/01/25 12:12:53;;;;;;;;;;;11.60;90.90;;;;;;5031643;28;19986;-69
2023/01/25 12:15:19;;;;;;;;;;;;;;;;;;5025440;28;19917;-70
2023/01/25 12:18:04;;;;;;;;;;;11.30;90.80;;;;;;5028250;28;19928;-70
2023/01/25 12:20:36;;;;;;;;;;;11.30;90.80;;;;;;5026182;28;19921;-70
2023/01/25 12:23:14;;;;;;;;;;;11.20;90.40;;;;;;5028406;28;20348;-69
2023/01/25 12:26:10;;;;;;;;;;;11.40;90.80;;;;;;5031535;28;20011;-69
2023/01/25 12:28:38;;;;;;;;;;;11.50;90.80;;;;;;5000933;28;19922;-70
2023/01/25 12:31:05;;;;;;;;;;;;;;;;;;5012704;28;20012;-70
2023/01/25 12:33:33;;;;;;;;;;;11.40;90.60;;;;;;5032003;28;19921;-70
2023/01/25 12:36:22;;;;;;;;;;;11.40;90.80;;;;;;5032721;28;19975;-70
2023/01/25 12:39:02;;;;;;;;;;;11.40;90.80;;;;;;5025250;28;19925;-68
2023/01/25 12:41:30;;;;;;;;;;;11.30;90.70;;;;;;5028960;28;20295;-68
2023/01/25 12:43:57;;;;;;;;;;;;;;;;;;5026818;28;20322;-70
2023/01/25 12:46:24;;;;;;;;;;;11.30;90.70;;;;;;5033675;28;19928;-69
2023/01/25 12:48:49;;;;;;;;;;;11.20;90.70;;;;;;5054149;28;20298;-68
2023/01/25 12:51:15;;;;;;;;;;;11.50;90.70;;;;;;5053939;28;19921;-68
2023/01/25 12:53:42;;;;;;;;;;;11.60;90.80;;;;;;5019800;28;19921;-67
2023/01/25 12:56:10;;;;;;;;;;;11.50;90.70;;;;;;5069322;28;19927;-68
2023/01/25 12:58:54;;;;;;;;;;;11.40;90.70;;;;;;5053291;28;19920;-69
2023/01/25 13:01:32;;;;;;;;;;;11.70;90.60;;;;;;5012903;28;20622;-68
2023/01/25 13:04:16;;;;;;;;;;;11.30;90.60;;;;;;5054105;28;19974;-69
2023/01/25 13:06:53;;;;;;;;;;;11.20;90.60;;;;;;5054180;28;20007;-68
2023/01/25 13:09:27;;;;;;;;;;;11.50;90.60;;;;;;5033654;28;19967;-68
2023/01/25 13:11:53;;;;;;;;;;;;;;;;;;5017762;28;19982;-66
2023/01/25 13:14:27;;;;;;;;;;;11.30;90.50;;;;;;5019133;28;20388;-70
2023/01/25 13:16:53;;;;;;;;;;;11.40;90.50;;;;;;5053394;28;19975;-67
2023/01/25 13:19:20;;;;;;;;;;;11.30;90.40;;;;;;5052133;28;20011;-66
2023/01/25 13:21:49;;;;;;;;;;;11.50;90.50;;;;;;5035629;28;19925;-66
2023/01/25 13:24:18;;;;;;;;;;;11.20;90.40;;;;;;5032066;28;20381;-67
2023/01/25 13:26:53;;;;;;;;;;;11.40;90.50;;;;;;5016304;28;19921;-67
2023/01/25 13:29:34;;;;;;;;;;;11.30;90.40;;;;;;5018208;28;19934;-67
2023/01/25 13:32:03;;;;;;;;;;;11.40;90.50;;;;;;5053193;28;19947;-69
2023/01/25 13:34:29;;;;;;;;;;;;;;;;;;5052788;28;19924;-69
2023/01/25 13:36:56;;;;;;;;;;;11.20;90.40;;;;;;5052829;28;19935;-69
2023/01/25 13:39:27;;;;;;;;;;;11.40;90.50;;;;;;5053800;28;19963;-68
2023/01/25 13:41:59;;;;;;;;;;;11.20;90.40;;;;;;5054059;28;19920;-69
2023/01/25 13:44:27;;;;;;;;;;;;;;;;;;5031959;28;19921;-66
2023/01/25 13:46:53;;;;;;;;;;;;;;;;;;5051906;28;19928;-69
2023/01/25 13:49:21;;;;;;;;;;;11.00;90.40;;;;;;5053537;28;20294;-67
2023/01/25 13:51:47;;;;;;;;;;;;;;;;;;5053547;28;20398;-67
2023/01/25 13:54:14;;;;;;;;;;;11.20;90.40;;;;;;5051595;28;19921;-67
2023/01/25 13:56:40;;;;;;;;;;;11.00;90.40;;;;;;5035118;28;19921;-69
2023/01/25 13:59:06;;;;;;;;;;;11.00;90.30;;;;;;5052297;28;19983;-66
2023/01/25 14:01:33;;;;;;;;;;;11.30;90.40;;;;;;5031371;28;19964;-67
2023/01/25 14:04:00;;;;;;;;;;;11.20;90.40;;;;;;5034692;28;20007;-67
2023/01/25 14:06:27;;;;;;;;;;;;;;;;;;5035657;28;20363;-65
2023/01/25 14:08:53;;;;;;;;;;;11.10;90.40;;;;;;5037366;28;19927;-67
2023/01/25 14:11:19;;;;;;;;;;;11.30;90.40;;;;;;5056374;28;19921;-67
2023/01/25 14:13:58;;;;;;;;;;;11.20;90.40;;;;;;5056877;28;19920;-67
2023/01/25 14:16:26;;;;;;;;;;;11.30;90.40;;;;;;5054884;28;20259;-67
2023/01/25 14:18:52;;;;;;;;;;;11.00;90.40;;;;;;5056929;28;19995;-67
2023/01/25 14:21:19;;;;;;;;;;;11.30;90.40;;;;;;5039408;28;19921;-67
2023/01/25 14:23:45;;;;;;;;;;;11.20;90.40;;;;;;5036191;28;19925;-69
2023/01/25 14:26:16;;;;;;;;;;;11.40;90.40;;;;;;5037856;28;20014;-69
2023/01/25 14:28:42;;;;;;;;;;;;;;;;;;5019724;28;20290;-68
2023/01/25 14:31:12;;;;;;;;;;;11.20;90.30;;;;;;5030470;28;19927;-69
2023/01/25 14:33:43;;;;;;;;;;;;;;;;;;5045666;28;19967;-67
2023/01/25 14:36:11;;;;;;;;;;;11.00;90.30;;;;;;5056227;28;20003;-67
2023/01/25 14:38:38;;;;;;;;;;;11.30;90.40;;;;;;5039083;28;19974;-67
2023/01/25 14:41:12;;;;;;;;;;;11.30;90.30;;;;;;5034225;28;19921;-68